< Typhoon 198129 1982 Season Typhoon 198202 >
Typhoon 198201 (MAMIE)
General InformationTrack Information on Google MapsDetailed Wind InformationList of All Images || Disaster Info.ResourceGoogle EarthGE AnimationAtom FeedGeoJSON
Detalied Best Track (Time Zone = UTC)
Year Month Day Hour Lat. Long. Pressure (hPa) Wind (kt) Class Image Chart
1982 3 15 12 7.7 148.0 1004 0 2 Image Chart
1982 3 15 18 7.5 147.3 1002 0 2 Image Chart
1982 3 16 00 7.2 146.5 998 0 2 Image Chart
1982 3 16 06 7.2 145.4 990 45 3 Image Chart
1982 3 16 12 7.2 144.4 992 45 3 Image Chart
1982 3 16 18 7.2 143.4 992 45 3 Image Chart
1982 3 17 00 7.2 142.2 994 45 3 Image Chart
1982 3 17 06 7.5 140.8 994 45 3 Image Chart
1982 3 17 12 7.6 139.5 994 45 3 Image Chart
1982 3 17 18 7.8 138.1 994 45 3 Image Chart
1982 3 18 00 8.0 136.8 994 45 3 Image Chart
1982 3 18 06 8.1 135.4 994 45 3 Image Chart
1982 3 18 12 8.2 133.6 994 45 3 Image Chart
1982 3 18 18 8.1 131.7 992 45 3 Image Chart
1982 3 19 00 8.1 129.9 990 45 3 Image Chart
1982 3 19 06 8.2 127.9 990 50 4 Image Chart
1982 3 19 12 8.3 126.0 994 50 4 Image Chart
1982 3 19 18 8.4 124.1 996 40 3 Image Chart
1982 3 20 00 8.5 122.2 998 40 3 Image Chart
1982 3 20 06 8.6 120.9 998 35 3 Image Chart
1982 3 20 12 9.0 119.9 998 40 3 Image Chart
1982 3 20 18 9.4 119.0 1000 0 2 Image Chart
1982 3 21 00 10.0 118.0 1004 0 2 Image Chart
1982 3 21 06 10.5 117.0 1004 0 2 Image Chart
1982 3 21 12 11.0 116.0 1006 0 2 Image Chart
1982 3 21 18 11.0 115.5 1006 0 2 Image Chart
1982 3 22 00 11.0 115.0 1006 0 2 Image Chart
1982 3 22 06 11.0 114.5 1006 0 2 Image Chart
1982 3 22 12 11.0 114.0 1006 0 2 Image Chart
1982 3 22 18 11.5 113.5 1006 0 2 Image Chart
1982 3 23 00 11.5 113.0 1006 0 2 Image Chart
1982 3 23 06 11.5 112.5 1006 0 2 Image Chart
1982 3 23 12 12.0 112.0 1006 0 2 Image Chart
1982 3 23 18 12.0 111.5 1006 0 2 Image Chart
1982 3 24 00 12.0 111.0 1006 0 2 Image Chart
1982 3 24 06 11.8 110.2 1006 0 2 Image Chart
1982 3 24 12 11.8 110.2 1006 0 2 Image Chart
Japan Meteorological Agency Best Track Data | Correction Date : 1992-10-21
< Typhoon 198129 1982 Season Typhoon 198202 >

Help